Time;durP1;ratioP1;P1;durP2;ratioP2;P2;SDS_P1;SDS_P2;PMS_P1;PMS_P2;Temp;Humidity;BMP_temperature;BMP_pressure;BME280_temperature;BME280_humidity;BME280_pressure;Samples;Min_cycle;Max_cycle;Signal;HPM_P1;HPM_P2
2022/01/09 00:00:29;;;;;;;31.95;22.10;;;;;;;;;;6237796;23;20533;-79
2022/01/09 00:02:55;;;;;;;56.90;35.75;;;;;;;;;;6239991;22;20017;-79
2022/01/09 00:05:22;;;;;;;59.70;38.63;;;;;;;;;;6240259;23;22246;-81
2022/01/09 00:07:49;;;;;;;30.08;18.50;;;;;;;;;;6240912;23;20437;-80
2022/01/09 00:10:17;;;;;;;46.28;30.65;;;;;;;;;;6238811;23;20012;-82
2022/01/09 00:12:43;;;;;;;42.80;30.33;;;;;;;;;;6240398;23;20020;-82
2022/01/09 00:15:10;;;;;;;44.92;28.70;;;;;;;;;;6238784;23;20514;-80
2022/01/09 00:17:36;;;;;;;29.30;19.85;;;;;;;;;;6241771;23;20008;-80
2022/01/09 00:20:04;;;;;;;73.53;44.60;;;;;;;;;;6239632;23;20024;-80
2022/01/09 00:22:50;;;;;;;32.85;21.02;;;;;;;;;;6213383;23;20008;-79
2022/01/09 00:25:18;;;;;;;52.67;33.88;;;;;;;;;;6240417;23;20511;-79
2022/01/09 00:27:45;;;;;;;55.15;35.67;;;;;;;;;;6239401;23;20013;-80
2022/01/09 00:30:12;;;;;;;63.00;40.17;;;;;;;;;;6239350;23;20008;-79
2022/01/09 00:32:38;;;;;;;35.35;23.80;;;;;;;;;;6240502;23;20008;-78
2022/01/09 00:35:05;;;;;;;28.38;19.60;;;;;;;;;;6240411;23;20071;-78
2022/01/09 00:37:32;;;;;;;43.00;30.73;;;;;;;;;;6240552;23;20035;-78
2022/01/09 00:39:58;;;;;;;58.40;40.70;;;;;;;;;;6239404;23;20024;-79
2022/01/09 00:42:25;;;;;;;45.95;29.33;;;;;;;;;;6184098;23;20016;-80
2022/01/09 00:44:51;;;;;;;19.67;14.52;;;;;;;;;;6241315;23;20031;-81
2022/01/09 00:47:18;;;;;;;48.78;33.03;;;;;;;;;;6212722;23;20012;-81
2022/01/09 00:49:44;;;;;;;40.03;25.27;;;;;;;;;;6240157;23;20028;-79
2022/01/09 00:52:10;;;;;;;31.23;21.73;;;;;;;;;;6238742;23;20027;-80
2022/01/09 00:54:37;;;;;;;51.25;32.88;;;;;;;;;;6239816;23;20008;-80
2022/01/09 00:57:03;;;;;;;58.83;38.15;;;;;;;;;;6239003;23;20015;-81
2022/01/09 00:59:30;;;;;;;64.40;43.78;;;;;;;;;;6240113;23;20023;-81
2022/01/09 01:01:56;;;;;;;51.13;34.63;;;;;;;;;;6239827;23;20024;-80
2022/01/09 01:04:23;;;;;;;45.47;27.13;;;;;;;;;;6238763;22;20015;-82
2022/01/09 01:06:51;;;;;;;41.30;27.02;;;;;;;;;;6214436;23;20012;-81
2022/01/09 01:09:20;;;;;;;62.95;40.65;;;;;;;;;;6238612;23;20012;-81
2022/01/09 01:11:47;;;;;;;26.88;18.83;;;;;;;;;;6222174;23;20020;-80
2022/01/09 01:14:14;;;;;;;39.17;26.05;;;;;;;;;;6237766;23;20008;-81
2022/01/09 01:16:41;;;;;;;56.88;37.40;;;;;;;;;;6240255;23;20023;-82
2022/01/09 01:19:09;;;;;;;43.45;29.88;;;;;;;;;;6238539;23;20023;-80
2022/01/09 01:21:36;;;;;;;45.72;30.83;;;;;;;;;;6240195;23;20023;-80
2022/01/09 01:24:02;;;;;;;64.30;43.00;;;;;;;;;;6212451;23;20070;-80
2022/01/09 01:26:29;;;;;;;27.27;19.17;;;;;;;;;;6240466;23;20078;-82
2022/01/09 01:28:55;;;;;;;46.15;31.92;;;;;;;;;;6239974;23;20012;-79
2022/01/09 01:31:21;;;;;;;27.75;20.83;;;;;;;;;;6237899;23;20554;-80
2022/01/09 01:33:48;;;;;;;54.60;34.50;;;;;;;;;;6213667;23;20016;-80
2022/01/09 01:36:14;;;;;;;24.08;18.48;;;;;;;;;;6213036;23;20075;-80
2022/01/09 01:38:40;;;;;;;32.28;23.95;;;;;;;;;;6211834;23;20502;-79
2022/01/09 01:41:07;;;;;;;43.33;27.83;;;;;;;;;;6238418;23;20028;-77
2022/01/09 01:43:33;;;;;;;45.33;30.08;;;;;;;;;;6240266;23;20008;-80
2022/01/09 01:46:03;;;;;;;29.30;20.55;;;;;;;;;;6237633;23;20008;-80
2022/01/09 01:48:30;;;;;;;49.30;33.03;;;;;;;;;;6240408;23;20032;-80
2022/01/09 01:50:56;;;;;;;36.05;24.98;;;;;;;;;;6238835;22;20024;-81
2022/01/09 01:53:24;;;;;;;74.32;47.72;;;;;;;;;;6238068;23;20555;-82
2022/01/09 01:55:55;;;;;;;42.55;28.80;;;;;;;;;;6239191;23;20012;-79
2022/01/09 01:58:23;;;;;;;36.38;24.55;;;;;;;;;;6239148;23;20008;-80
2022/01/09 02:00:50;;;;;;;22.35;17.27;;;;;;;;;;6239893;23;20452;-79
2022/01/09 02:03:16;;;;;;;68.05;45.00;;;;;;;;;;6238218;22;20012;-79
2022/01/09 02:05:43;;;;;;;26.27;20.20;;;;;;;;;;6237282;23;20011;-79
2022/01/09 02:08:10;;;;;;;42.38;29.38;;;;;;;;;;6238106;23;20012;-79
2022/01/09 02:10:42;;;;;;;32.47;22.88;;;;;;;;;;6239416;23;20073;-79
2022/01/09 02:13:08;;;;;;;21.20;15.55;;;;;;;;;;6237167;23;20023;-78
2022/01/09 02:15:37;;;;;;;37.05;25.80;;;;;;;;;;6238307;23;20020;-79
2022/01/09 02:18:04;;;;;;;32.75;22.58;;;;;;;;;;6211572;23;20066;-77
2022/01/09 02:20:31;;;;;;;34.13;23.42;;;;;;;;;;6211252;23;20391;-79
2022/01/09 02:22:57;;;;;;;32.00;22.85;;;;;;;;;;6237407;23;20440;-78
2022/01/09 02:25:24;;;;;;;55.83;37.35;;;;;;;;;;6237121;23;20016;-79
2022/01/09 02:27:50;;;;;;;34.75;23.25;;;;;;;;;;6238220;23;20016;-79
2022/01/09 02:30:17;;;;;;;30.33;21.02;;;;;;;;;;6238476;23;20008;-80
2022/01/09 02:32:43;;;;;;;29.67;21.58;;;;;;;;;;6238443;23;20004;-81
2022/01/09 02:35:10;;;;;;;28.85;20.20;;;;;;;;;;6187379;23;20449;-81
2022/01/09 02:37:36;;;;;;;30.38;22.17;;;;;;;;;;6239152;23;20016;-80
2022/01/09 02:40:04;;;;;;;31.55;22.40;;;;;;;;;;6238453;23;20031;-79
2022/01/09 02:42:31;;;;;;;26.05;21.17;;;;;;;;;;6210922;23;20012;-80
2022/01/09 02:44:58;;;;;;;41.75;27.48;;;;;;;;;;6210055;23;20066;-80
2022/01/09 02:47:25;;;;;;;49.50;34.40;;;;;;;;;;6238800;23;20012;-80
2022/01/09 02:49:53;;;;;;;30.05;20.67;;;;;;;;;;6238353;23;20352;-80
2022/01/09 02:52:35;;;;;;;20.67;14.02;;;;;;;;;;6237561;23;20019;-81
2022/01/09 02:55:12;;;;;;;28.60;20.20;;;;;;;;;;6237828;23;20023;-80
2022/01/09 02:57:45;;;;;;;23.70;17.67;;;;;;;;;;6238803;23;20005;-80
2022/01/09 03:00:14;;;;;;;59.20;41.50;;;;;;;;;;6237765;23;20066;-78
2022/01/09 03:02:40;;;;;;;51.10;34.28;;;;;;;;;;6238634;22;20437;-78
2022/01/09 03:05:08;;;;;;;42.85;30.38;;;;;;;;;;6236503;23;20333;-77
2022/01/09 03:07:34;;;;;;;28.42;20.08;;;;;;;;;;6210884;23;20012;-79
2022/01/09 03:10:00;;;;;;;34.97;24.75;;;;;;;;;;6236002;23;20017;-78
2022/01/09 03:12:27;;;;;;;33.67;23.48;;;;;;;;;;6211898;23;20322;-78
2022/01/09 03:14:53;;;;;;;36.92;24.77;;;;;;;;;;6238618;23;20019;-79
2022/01/09 03:17:20;;;;;;;29.83;22.30;;;;;;;;;;6237032;23;20008;-79
2022/01/09 03:19:46;;;;;;;24.13;18.73;;;;;;;;;;6238089;23;20016;-78
2022/01/09 03:22:12;;;;;;;36.70;25.77;;;;;;;;;;6210625;23;20020;-82
2022/01/09 03:24:39;;;;;;;62.90;40.33;;;;;;;;;;6238637;23;20019;-82
2022/01/09 03:27:05;;;;;;;31.33;22.45;;;;;;;;;;6238195;23;20078;-79
2022/01/09 03:29:32;;;;;;;33.40;23.45;;;;;;;;;;6210762;23;20008;-80
2022/01/09 03:31:58;;;;;;;46.83;32.25;;;;;;;;;;6237080;23;20020;-80
2022/01/09 03:34:25;;;;;;;33.40;22.70;;;;;;;;;;6239484;23;20011;-81
2022/01/09 03:36:52;;;;;;;45.28;31.25;;;;;;;;;;6211831;23;20016;-81
2022/01/09 03:39:18;;;;;;;36.42;25.67;;;;;;;;;;6237310;23;20016;-82
2022/01/09 03:41:45;;;;;;;24.95;19.27;;;;;;;;;;6238212;23;20020;-80
2022/01/09 03:44:11;;;;;;;45.65;31.58;;;;;;;;;;6236443;23;20019;-82
2022/01/09 03:46:38;;;;;;;25.50;20.35;;;;;;;;;;6237923;23;20112;-81
2022/01/09 03:49:04;;;;;;;37.90;26.52;;;;;;;;;;6237363;23;20023;-81
2022/01/09 03:51:36;;;;;;;28.05;21.30;;;;;;;;;;6236798;23;20169;-81
2022/01/09 03:54:04;;;;;;;49.92;35.20;;;;;;;;;;6236335;23;20023;-81
2022/01/09 03:56:30;;;;;;;39.75;29.52;;;;;;;;;;6238306;23;20005;-81
2022/01/09 03:58:57;;;;;;;31.42;22.35;;;;;;;;;;6240624;23;20098;-82
2022/01/09 04:01:23;;;;;;;38.35;26.77;;;;;;;;;;6239649;23;20462;-80
2022/01/09 04:03:50;;;;;;;49.53;34.60;;;;;;;;;;6239383;22;20055;-80
2022/01/09 04:06:17;;;;;;;36.05;27.25;;;;;;;;;;6239252;23;20012;-81
2022/01/09 04:08:44;;;;;;;31.13;22.77;;;;;;;;;;6213423;23;20019;-81
2022/01/09 04:11:10;;;;;;;57.55;39.22;;;;;;;;;;6239149;23;20008;-81
2022/01/09 04:13:38;;;;;;;64.55;44.03;;;;;;;;;;6239045;23;20019;-83
2022/01/09 04:16:04;;;;;;;38.25;24.67;;;;;;;;;;6239336;23;20016;-82
2022/01/09 04:18:34;;;;;;;37.53;27.23;;;;;;;;;;6241375;23;20073;-80
2022/01/09 04:21:00;;;;;;;49.20;34.90;;;;;;;;;;6212870;23;20027;-81
2022/01/09 04:23:26;;;;;;;23.88;18.73;;;;;;;;;;6239949;23;20008;-80
2022/01/09 04:25:53;;;;;;;31.75;22.92;;;;;;;;;;6241183;23;20023;-81
2022/01/09 04:28:19;;;;;;;39.88;28.33;;;;;;;;;;6239821;23;20012;-81
2022/01/09 04:30:46;;;;;;;59.47;40.85;;;;;;;;;;6213574;23;20445;-81
2022/01/09 04:33:13;;;;;;;41.92;30.30;;;;;;;;;;6212747;23;20016;-81
2022/01/09 04:35:41;;;;;;;41.08;27.35;;;;;;;;;;6238972;23;20011;-79
2022/01/09 04:38:08;;;;;;;38.15;26.95;;;;;;;;;;6213784;23;20017;-79
2022/01/09 04:40:35;;;;;;;45.33;31.17;;;;;;;;;;6239092;23;20012;-79
2022/01/09 04:43:04;;;;;;;34.03;23.42;;;;;;;;;;6238400;23;20019;-78
2022/01/09 04:45:30;;;;;;;60.03;41.53;;;;;;;;;;6240444;23;20023;-80
2022/01/09 04:48:04;;;;;;;29.00;19.80;;;;;;;;;;6240490;23;20040;-80
2022/01/09 04:50:33;;;;;;;30.40;22.42;;;;;;;;;;6239175;23;21358;-80
2022/01/09 04:53:09;;;;;;;35.05;25.80;;;;;;;;;;6238053;23;20038;-79
2022/01/09 04:55:40;;;;;;;36.28;25.95;;;;;;;;;;6238850;23;20008;-80
2022/01/09 04:58:06;;;;;;;61.47;41.03;;;;;;;;;;6239419;23;20020;-80
2022/01/09 05:00:33;;;;;;;47.83;32.05;;;;;;;;;;6238907;23;20452;-80
2022/01/09 05:02:59;;;;;;;25.95;18.60;;;;;;;;;;6239977;22;20004;-81
2022/01/09 05:05:26;;;;;;;29.98;22.35;;;;;;;;;;6239442;23;20066;-81
2022/01/09 05:07:52;;;;;;;36.70;25.77;;;;;;;;;;6241222;23;20016;-80
2022/01/09 05:10:19;;;;;;;38.08;26.35;;;;;;;;;;6239572;23;20016;-81
2022/01/09 05:12:45;;;;;;;27.45;20.65;;;;;;;;;;6239571;23;20074;-80
2022/01/09 05:15:14;;;;;;;43.65;30.40;;;;;;;;;;6238761;23;20395;-81
2022/01/09 05:17:40;;;;;;;30.63;21.48;;;;;;;;;;6241381;23;20015;-81
2022/01/09 05:20:07;;;;;;;32.38;21.95;;;;;;;;;;6212704;23;20090;-79
2022/01/09 05:22:33;;;;;;;54.20;39.03;;;;;;;;;;6239950;23;20016;-78
2022/01/09 05:25:06;;;;;;;40.60;28.95;;;;;;;;;;6211516;23;20023;-79
2022/01/09 05:27:33;;;;;;;31.58;23.08;;;;;;;;;;6239443;23;20016;-79
2022/01/09 05:29:59;;;;;;;33.88;24.48;;;;;;;;;;6237307;23;20012;-77
2022/01/09 05:32:26;;;;;;;33.65;23.15;;;;;;;;;;6238796;23;20008;-80
2022/01/09 05:34:52;;;;;;;31.60;22.85;;;;;;;;;;6239927;23;20012;-81
2022/01/09 05:37:19;;;;;;;40.55;27.50;;;;;;;;;;6238892;23;20078;-81
2022/01/09 05:39:45;;;;;;;44.60;29.92;;;;;;;;;;6239317;23;20325;-79
2022/01/09 05:42:13;;;;;;;51.67;34.65;;;;;;;;;;6238138;23;20028;-82
2022/01/09 05:44:40;;;;;;;33.78;24.48;;;;;;;;;;6239548;23;20058;-79
2022/01/09 05:47:06;;;;;;;27.27;20.67;;;;;;;;;;6238151;23;20012;-80
2022/01/09 05:49:32;;;;;;;50.08;32.75;;;;;;;;;;6240329;23;20073;-80
2022/01/09 05:51:59;;;;;;;26.77;20.58;;;;;;;;;;6239020;23;20031;-81
2022/01/09 05:54:26;;;;;;;37.20;25.90;;;;;;;;;;6235940;23;20340;-79
2022/01/09 05:56:52;;;;;;;26.45;22.20;;;;;;;;;;6238385;23;20416;-80
2022/01/09 05:59:19;;;;;;;63.10;44.10;;;;;;;;;;6237378;23;20016;-81
2022/01/09 06:01:45;;;;;;;65.57;46.20;;;;;;;;;;6237852;23;20031;-80
2022/01/09 06:04:12;;;;;;;36.70;26.20;;;;;;;;;;6239412;22;20016;-80
2022/01/09 06:06:38;;;;;;;58.15;38.55;;;;;;;;;;6240346;23;20004;-82
2022/01/09 06:09:05;;;;;;;36.45;26.85;;;;;;;;;;6239401;23;20015;-80
2022/01/09 06:11:31;;;;;;;29.90;21.90;;;;;;;;;;6239576;23;20008;-81
2022/01/09 06:13:58;;;;;;;52.08;35.72;;;;;;;;;;6239124;23;20016;-81
2022/01/09 06:16:24;;;;;;;33.13;24.05;;;;;;;;;;6238077;23;20044;-79
2022/01/09 06:18:50;;;;;;;46.05;33.17;;;;;;;;;;6239805;23;20012;-80
2022/01/09 06:21:18;;;;;;;36.15;26.23;;;;;;;;;;6237912;23;20398;-80
2022/01/09 06:23:45;;;;;;;41.63;28.00;;;;;;;;;;6239364;23;20016;-80
2022/01/09 06:26:11;;;;;;;46.78;33.42;;;;;;;;;;6237676;23;20015;-80
2022/01/09 06:28:37;;;;;;;42.40;29.20;;;;;;;;;;6240882;23;20012;-81
2022/01/09 06:31:04;;;;;;;43.20;30.27;;;;;;;;;;6211792;23;20048;-81
2022/01/09 06:33:30;;;;;;;65.25;43.30;;;;;;;;;;6239075;23;20012;-80
2022/01/09 06:35:56;;;;;;;30.02;23.10;;;;;;;;;;6239385;23;20459;-81
2022/01/09 06:38:23;;;;;;;33.60;22.75;;;;;;;;;;6236565;23;20008;-80
2022/01/09 06:40:49;;;;;;;52.13;36.70;;;;;;;;;;6238408;23;20023;-81
2022/01/09 06:43:16;;;;;;;50.38;36.13;;;;;;;;;;6237818;23;20456;-80
2022/01/09 06:45:42;;;;;;;37.67;25.08;;;;;;;;;;6237825;23;20011;-79
2022/01/09 06:48:09;;;;;;;54.83;37.95;;;;;;;;;;6211157;23;20024;-80
2022/01/09 06:50:35;;;;;;;78.22;50.78;;;;;;;;;;6234932;23;20020;-81
2022/01/09 06:53:02;;;;;;;38.15;26.60;;;;;;;;;;6235703;23;20039;-81
2022/01/09 06:55:28;;;;;;;64.97;43.88;;;;;;;;;;6238362;23;20004;-82
2022/01/09 06:57:55;;;;;;;55.78;38.25;;;;;;;;;;6236671;23;20008;-80
2022/01/09 07:00:22;;;;;;;45.97;31.35;;;;;;;;;;6238254;23;20015;-82
2022/01/09 07:02:48;;;;;;;50.35;34.58;;;;;;;;;;6236970;22;20352;-81
2022/01/09 07:05:15;;;;;;;38.45;27.85;;;;;;;;;;6236366;23;20012;-81
2022/01/09 07:07:42;;;;;;;53.10;34.13;;;;;;;;;;6237010;23;20016;-80
2022/01/09 07:10:09;;;;;;;44.20;28.60;;;;;;;;;;6237102;23;20024;-80
2022/01/09 07:12:36;;;;;;;43.58;28.27;;;;;;;;;;6214690;23;20016;-81
2022/01/09 07:15:04;;;;;;;32.60;23.70;;;;;;;;;;6237303;23;20019;-81
2022/01/09 07:17:30;;;;;;;48.72;33.63;;;;;;;;;;6237834;23;20015;-83
2022/01/09 07:19:57;;;;;;;28.02;21.13;;;;;;;;;;6237247;23;20031;-83
2022/01/09 07:22:23;;;;;;;37.40;25.63;;;;;;;;;;6235914;23;20016;-79
2022/01/09 07:24:49;;;;;;;28.95;20.20;;;;;;;;;;6238301;23;20016;-83
2022/01/09 07:27:16;;;;;;;25.50;17.92;;;;;;;;;;6209272;23;20008;-84
2022/01/09 07:29:42;;;;;;;22.25;16.35;;;;;;;;;;6237192;23;20015;-86
2022/01/09 07:32:09;;;;;;;29.50;20.88;;;;;;;;;;6210633;23;20020;-82
2022/01/09 07:34:35;;;;;;;39.95;27.35;;;;;;;;;;6239627;23;20035;-82
2022/01/09 07:37:01;;;;;;;30.70;22.77;;;;;;;;;;6237366;23;20510;-84
2022/01/09 07:39:28;;;;;;;33.80;24.92;;;;;;;;;;6240270;23;19996;-82
2022/01/09 07:41:56;;;;;;;30.48;20.50;;;;;;;;;;6240393;23;20027;-86
2022/01/09 07:44:22;;;;;;;39.85;28.60;;;;;;;;;;6240513;23;20012;-84
2022/01/09 07:46:49;;;;;;;56.95;40.10;;;;;;;;;;6241329;23;20389;-85
2022/01/09 07:49:15;;;;;;;29.15;22.48;;;;;;;;;;6240534;23;20020;-84
2022/01/09 07:51:42;;;;;;;32.03;22.52;;;;;;;;;;6240871;22;20027;-82
2022/01/09 07:54:08;;;;;;;32.20;23.60;;;;;;;;;;6213055;23;20012;-82
2022/01/09 07:56:34;;;;;;;35.22;24.95;;;;;;;;;;6215110;23;20004;-81
2022/01/09 07:59:01;;;;;;;83.28;53.65;;;;;;;;;;6241001;23;20019;-80
2022/01/09 08:01:27;;;;;;;28.05;20.40;;;;;;;;;;6241877;23;20016;-79
2022/01/09 08:03:54;;;;;;;43.10;31.95;;;;;;;;;;6242111;22;20008;-82
2022/01/09 08:06:20;;;;;;;43.28;31.13;;;;;;;;;;6241203;23;20465;-80
2022/01/09 08:08:47;;;;;;;39.88;25.35;;;;;;;;;;6241631;23;20020;-80
2022/01/09 08:11:13;;;;;;;60.30;39.92;;;;;;;;;;6240604;23;20019;-81
2022/01/09 08:13:40;;;;;;;40.50;29.17;;;;;;;;;;6242467;23;20032;-80
2022/01/09 08:16:06;;;;;;;40.47;29.55;;;;;;;;;;6242088;23;20016;-80
2022/01/09 08:18:32;;;;;;;27.65;20.13;;;;;;;;;;6243359;23;20475;-80
2022/01/09 08:20:59;;;;;;;29.25;22.13;;;;;;;;;;6251992;23;20433;-81
2022/01/09 08:23:25;;;;;;;30.55;24.23;;;;;;;;;;6254706;23;22240;-81
2022/01/09 08:25:51;;;;;;;40.28;28.02;;;;;;;;;;6256748;23;20031;-82
2022/01/09 08:28:18;;;;;;;42.10;29.75;;;;;;;;;;6249754;23;20024;-81
2022/01/09 08:30:44;;;;;;;32.95;23.40;;;;;;;;;;6248423;23;20520;-82
2022/01/09 08:33:11;;;;;;;28.38;21.35;;;;;;;;;;6246319;23;20035;-81
2022/01/09 08:35:37;;;;;;;34.63;22.90;;;;;;;;;;6250004;23;20012;-81
2022/01/09 08:38:03;;;;;;;53.53;36.92;;;;;;;;;;6249586;23;20020;-84
2022/01/09 08:40:30;;;;;;;56.42;40.22;;;;;;;;;;6221453;23;20012;-81
2022/01/09 08:42:56;;;;;;;34.30;22.60;;;;;;;;;;6243136;23;20459;-81
2022/01/09 08:45:23;;;;;;;36.55;26.30;;;;;;;;;;6240994;23;20020;-82
2022/01/09 08:47:50;;;;;;;35.97;26.05;;;;;;;;;;6215706;23;20012;-82
2022/01/09 08:50:18;;;;;;;34.00;24.67;;;;;;;;;;6213294;23;20138;-81
2022/01/09 08:52:45;;;;;;;32.28;24.17;;;;;;;;;;6241261;23;20019;-81
2022/01/09 08:55:13;;;;;;;33.35;24.42;;;;;;;;;;6215402;23;20014;-85
2022/01/09 08:57:41;;;;;;;32.70;23.88;;;;;;;;;;6240305;23;20445;-84
2022/01/09 09:00:08;;;;;;;40.38;27.17;;;;;;;;;;6238316;23;20020;-83
2022/01/09 09:02:34;;;;;;;43.60;30.20;;;;;;;;;;6239692;22;20074;-83
2022/01/09 09:05:01;;;;;;;32.17;22.58;;;;;;;;;;6239119;23;20012;-85
2022/01/09 09:07:27;;;;;;;35.35;25.58;;;;;;;;;;6213342;23;20087;-85
2022/01/09 09:09:54;;;;;;;26.90;20.88;;;;;;;;;;6238775;23;20560;-85
2022/01/09 09:12:20;;;;;;;40.83;29.02;;;;;;;;;;6238688;23;20019;-83
2022/01/09 09:14:48;;;;;;;49.13;34.78;;;;;;;;;;6240924;23;20488;-83
2022/01/09 09:17:15;;;;;;;41.17;31.38;;;;;;;;;;6238994;23;20096;-84
2022/01/09 09:19:41;;;;;;;35.15;25.38;;;;;;;;;;6241626;23;20479;-83
2022/01/09 09:22:07;;;;;;;35.95;26.05;;;;;;;;;;6239156;23;20127;-82
2022/01/09 09:24:35;;;;;;;37.97;24.85;;;;;;;;;;6238894;23;20336;-84
2022/01/09 09:27:01;;;;;;;32.35;24.52;;;;;;;;;;6237701;23;20016;-82
2022/01/09 09:29:27;;;;;;;35.00;25.98;;;;;;;;;;6212112;23;20326;-83
2022/01/09 09:31:54;;;;;;;37.22;25.80;;;;;;;;;;6240148;23;20020;-82
2022/01/09 09:34:20;;;;;;;34.42;24.77;;;;;;;;;;6245198;23;20012;-83
2022/01/09 09:36:47;;;;;;;24.95;19.88;;;;;;;;;;6243460;23;20016;-85
2022/01/09 09:39:14;;;;;;;35.85;28.52;;;;;;;;;;6244407;23;20013;-83
2022/01/09 09:41:41;;;;;;;31.27;22.77;;;;;;;;;;6249278;23;20023;-83
2022/01/09 09:44:12;;;;;;;45.63;33.63;;;;;;;;;;6241887;23;20020;-83
2022/01/09 09:46:39;;;;;;;24.52;18.33;;;;;;;;;;6237704;23;20066;-84
2022/01/09 09:49:06;;;;;;;31.63;24.38;;;;;;;;;;6237656;23;20019;-81
2022/01/09 09:51:32;;;;;;;42.85;29.33;;;;;;;;;;6239020;22;20023;-85
2022/01/09 09:53:59;;;;;;;29.58;23.23;;;;;;;;;;6211916;23;20330;-80
2022/01/09 09:56:25;;;;;;;27.00;20.45;;;;;;;;;;6239719;23;20419;-83
2022/01/09 09:58:52;;;;;;;42.20;30.35;;;;;;;;;;6241841;23;20021;-83
2022/01/09 10:01:27;;;;;;;37.03;26.42;;;;;;;;;;6237632;23;20089;-82
2022/01/09 10:03:55;;;;;;;59.03;39.90;;;;;;;;;;6238406;22;20472;-82
2022/01/09 10:06:40;;;;;;;51.10;34.63;;;;;;;;;;6237741;23;20012;-82
2022/01/09 10:09:08;;;;;;;64.32;41.42;;;;;;;;;;6236086;22;20016;-84
2022/01/09 10:12:01;;;;;;;33.80;24.23;;;;;;;;;;6238854;23;20008;-84
2022/01/09 10:14:31;;;;;;;32.15;21.60;;;;;;;;;;6233370;23;21436;-82
2022/01/09 10:17:12;;;;;;;35.15;23.63;;;;;;;;;;6238731;23;20518;-82
2022/01/09 10:19:45;;;;;;;50.75;34.30;;;;;;;;;;6236061;23;20008;-79
2022/01/09 10:22:32;;;;;;;58.85;40.17;;;;;;;;;;6237710;23;20016;-83
2022/01/09 10:25:18;;;;;;;30.77;21.95;;;;;;;;;;6237767;23;20012;-78
2022/01/09 10:27:45;;;;;;;26.67;18.80;;;;;;;;;;6238678;22;20008;-82
2022/01/09 10:30:13;;;;;;;22.65;18.02;;;;;;;;;;6237294;23;20396;-81
2022/01/09 10:32:40;;;;;;;35.85;26.73;;;;;;;;;;6210917;23;20016;-82
2022/01/09 10:35:19;;;;;;;35.35;23.80;;;;;;;;;;6237163;23;20074;-81
2022/01/09 10:37:47;;;;;;;44.95;33.67;;;;;;;;;;6238344;23;20016;-81
2022/01/09 10:40:20;;;;;;;51.10;32.05;;;;;;;;;;6236317;23;20508;-82
2022/01/09 10:43:00;;;;;;;30.17;23.35;;;;;;;;;;6239364;23;20024;-81
2022/01/09 10:45:26;;;;;;;64.93;46.20;;;;;;;;;;6236581;23;21299;-82
2022/01/09 10:48:01;;;;;;;36.50;25.15;;;;;;;;;;6238744;23;20392;-82
2022/01/09 10:50:29;;;;;;;55.40;37.70;;;;;;;;;;6235494;22;21297;-83
2022/01/09 10:53:15;;;;;;;41.00;29.55;;;;;;;;;;6239765;23;20062;-83
2022/01/09 10:55:42;;;;;;;31.08;23.13;;;;;;;;;;6236898;23;22050;-76
2022/01/09 10:58:16;;;;;;;53.22;37.03;;;;;;;;;;6237451;23;20012;-81
2022/01/09 11:00:42;;;;;;;32.30;23.92;;;;;;;;;;6238547;23;20034;-80
2022/01/09 11:03:09;;;;;;;27.23;21.67;;;;;;;;;;6237956;22;20023;-79
2022/01/09 11:05:35;;;;;;;31.75;21.08;;;;;;;;;;6237137;23;20008;-80
2022/01/09 11:08:03;;;;;;;33.90;23.15;;;;;;;;;;6235618;23;20600;-80
2022/01/09 11:10:30;;;;;;;32.70;23.55;;;;;;;;;;6237555;23;20004;-79
2022/01/09 11:12:59;;;;;;;37.97;27.38;;;;;;;;;;6236756;23;20077;-79
2022/01/09 11:15:31;;;;;;;29.15;21.02;;;;;;;;;;6234598;23;21274;-79
2022/01/09 11:18:01;;;;;;;28.75;21.48;;;;;;;;;;6235867;23;20337;-79
2022/01/09 11:20:27;;;;;;;31.38;23.48;;;;;;;;;;6234881;23;20083;-81
2022/01/09 11:22:56;;;;;;;31.00;22.83;;;;;;;;;;6236742;23;20027;-80
2022/01/09 11:25:28;;;;;;;27.05;21.00;;;;;;;;;;6236619;23;20019;-80
2022/01/09 11:28:01;;;;;;;34.10;26.25;;;;;;;;;;6238474;23;20349;-80
2022/01/09 11:30:37;;;;;;;33.50;24.50;;;;;;;;;;6210980;23;20066;-79
2022/01/09 11:33:06;;;;;;;52.58;34.65;;;;;;;;;;6237593;23;20016;-81
2022/01/09 11:35:51;;;;;;;49.17;32.63;;;;;;;;;;6238731;23;20352;-80
2022/01/09 11:38:36;;;;;;;46.25;32.75;;;;;;;;;;6211060;23;20008;-79
2022/01/09 11:41:21;;;;;;;29.60;23.38;;;;;;;;;;6238252;23;20016;-80
2022/01/09 11:43:52;;;;;;;36.97;25.63;;;;;;;;;;6238328;23;20483;-80
2022/01/09 11:46:18;;;;;;;34.40;23.97;;;;;;;;;;6238581;23;20043;-80
2022/01/09 11:48:51;;;;;;;31.63;22.15;;;;;;;;;;6238692;23;20394;-81
2022/01/09 11:51:18;;;;;;;41.30;29.10;;;;;;;;;;6236817;23;20530;-80
2022/01/09 11:53:57;;;;;;;42.75;30.83;;;;;;;;;;6238921;23;20009;-79
2022/01/09 11:56:41;;;;;;;36.15;24.27;;;;;;;;;;6238018;23;20046;-80
2022/01/09 11:59:35;;;;;;;47.65;34.60;;;;;;;;;;6238449;23;20017;-80
2022/01/09 12:02:06;;;;;;;37.35;25.65;;;;;;;;;;6207593;22;20024;-80
2022/01/09 12:04:33;;;;;;;64.70;44.70;;;;;;;;;;6239015;23;20012;-81
2022/01/09 12:07:00;;;;;;;26.42;19.45;;;;;;;;;;6237708;23;20453;-80
2022/01/09 12:09:32;;;;;;;21.88;16.20;;;;;;;;;;6236126;23;20266;-82
2022/01/09 12:12:11;;;;;;;21.90;15.80;;;;;;;;;;6238038;23;20483;-81
2022/01/09 12:14:44;;;;;;;19.17;13.32;;;;;;;;;;6236063;23;22218;-81
2022/01/09 12:17:26;;;;;;;20.55;12.05;;;;;;;;;;6237176;23;20020;-79
2022/01/09 12:19:52;;;;;;;;;;;;;;;;;;6213710;23;20016;-79
2022/01/09 12:22:38;;;;;;;19.58;12.95;;;;;;;;;;6238805;23;19915;-80
2022/01/09 12:25:04;;;;;;;20.75;14.02;;;;;;;;;;6239087;23;20444;-81
2022/01/09 12:27:38;;;;;;;19.17;12.07;;;;;;;;;;6239630;23;20348;-80
2022/01/09 12:30:08;;;;;;;18.13;12.45;;;;;;;;;;6238477;23;20013;-80
2022/01/09 12:32:38;;;;;;;20.20;13.25;;;;;;;;;;6238821;23;20004;-80
2022/01/09 12:35:12;;;;;;;17.65;12.05;;;;;;;;;;6212252;23;20008;-81
2022/01/09 12:37:43;;;;;;;21.30;15.20;;;;;;;;;;6240258;23;20015;-81
2022/01/09 12:40:10;;;;;;;22.40;13.20;;;;;;;;;;6240703;23;20020;-81
2022/01/09 12:42:37;;;;;;;37.67;22.92;;;;;;;;;;6239985;23;20028;-80
2022/01/09 12:45:04;;;;;;;30.02;19.70;;;;;;;;;;6239193;23;20500;-80
2022/01/09 12:47:40;;;;;;;29.73;18.38;;;;;;;;;;6239090;23;20004;-78
2022/01/09 12:50:06;;;;;;;43.35;27.17;;;;;;;;;;6237538;22;20461;-77
2022/01/09 12:52:33;;;;;;;50.55;32.08;;;;;;;;;;6239671;23;20494;-78
2022/01/09 12:55:06;;;;;;;33.75;21.42;;;;;;;;;;6238265;23;20078;-77
2022/01/09 12:57:52;;;;;;;30.75;19.90;;;;;;;;;;6210129;23;20067;-75
2022/01/09 13:00:28;;;;;;;64.85;38.90;;;;;;;;;;6210288;23;20330;-77
2022/01/09 13:02:55;;;;;;;41.08;27.00;;;;;;;;;;6238113;22;20528;-77
2022/01/09 13:05:23;;;;;;;35.17;22.15;;;;;;;;;;6237221;22;20703;-76
2022/01/09 13:07:59;;;;;;;30.13;20.10;;;;;;;;;;6237644;23;20046;-77
2022/01/09 13:10:32;;;;;;;27.08;15.82;;;;;;;;;;6236482;23;21217;-77
2022/01/09 13:13:10;;;;;;;40.83;25.30;;;;;;;;;;6238669;23;20399;-78
2022/01/09 13:15:38;;;;;;;39.70;23.02;;;;;;;;;;6184090;23;20008;-76
2022/01/09 13:18:05;;;;;;;33.03;22.65;;;;;;;;;;6236074;23;20348;-76
2022/01/09 13:20:33;;;;;;;60.78;36.88;;;;;;;;;;6237402;23;20008;-75
2022/01/09 13:23:03;;;;;;;47.30;27.00;;;;;;;;;;6237934;23;20020;-76
2022/01/09 13:25:30;;;;;;;17.23;12.68;;;;;;;;;;6235837;23;21445;-76
2022/01/09 13:27:56;;;;;;;47.33;29.83;;;;;;;;;;6237309;23;20012;-77
2022/01/09 13:30:22;;;;;;;37.58;25.10;;;;;;;;;;6235152;23;20043;-78
2022/01/09 13:32:49;;;;;;;40.63;24.40;;;;;;;;;;6237358;23;20074;-77
2022/01/09 13:35:15;;;;;;;48.25;28.10;;;;;;;;;;6236113;23;20034;-77
2022/01/09 13:37:42;;;;;;;33.25;20.10;;;;;;;;;;6236570;23;20038;-77
2022/01/09 13:40:08;;;;;;;27.10;16.80;;;;;;;;;;6237627;23;20445;-77
2022/01/09 13:42:35;;;;;;;37.70;24.77;;;;;;;;;;6235583;23;20027;-77
2022/01/09 13:45:04;;;;;;;55.20;31.58;;;;;;;;;;6229943;23;20012;-76
2022/01/09 13:47:30;;;;;;;52.28;31.20;;;;;;;;;;6237208;23;20004;-78
2022/01/09 13:49:56;;;;;;;54.22;31.48;;;;;;;;;;6237792;23;20023;-76
2022/01/09 13:52:33;;;;;;;56.03;33.90;;;;;;;;;;6209052;23;20016;-78
2022/01/09 13:55:06;;;;;;;49.30;28.80;;;;;;;;;;6237005;23;20024;-78
2022/01/09 13:57:46;;;;;;;32.13;22.10;;;;;;;;;;6235075;23;20348;-77
2022/01/09 14:00:13;;;;;;;45.75;27.15;;;;;;;;;;6209919;23;20016;-76
2022/01/09 14:02:41;;;;;;;34.47;21.90;;;;;;;;;;6237708;22;20023;-76
2022/01/09 14:05:11;;;;;;;53.58;30.75;;;;;;;;;;6236693;23;20020;-77
2022/01/09 14:07:38;;;;;;;44.23;27.57;;;;;;;;;;6210690;23;20023;-75
2022/01/09 14:10:05;;;;;;;31.23;18.13;;;;;;;;;;6236505;23;20016;-75
2022/01/09 14:12:35;;;;;;;25.38;17.30;;;;;;;;;;6237944;23;20085;-76
2022/01/09 14:15:11;;;;;;;19.48;13.13;;;;;;;;;;6237874;23;20016;-77
2022/01/09 14:17:38;;;;;;;38.90;22.33;;;;;;;;;;6241673;23;20023;-77
2022/01/09 14:20:14;;;;;;;38.55;23.77;;;;;;;;;;6243385;23;20009;-76
2022/01/09 14:22:42;;;;;;;31.67;19.95;;;;;;;;;;6244570;23;20456;-75
2022/01/09 14:25:17;;;;;;;28.13;17.02;;;;;;;;;;6247839;23;20085;-77